createdAt,value
2022-12-18T00:01:20.807Z,50.25
2022-12-18T00:03:48.110Z,63.40
2022-12-18T00:06:15.581Z,18.33
2022-12-18T00:08:43.621Z,44.17
2022-12-18T00:11:14.092Z,46.15
2022-12-18T00:13:41.714Z,41.90
2022-12-18T00:16:12.533Z,26.35
2022-12-18T00:18:40.737Z,34.55
2022-12-18T00:21:09.808Z,39.88
2022-12-18T00:23:40.117Z,44.20
2022-12-18T00:26:11.258Z,46.97
2022-12-18T00:28:38.010Z,42.97
2022-12-18T00:31:07.458Z,41.42
2022-12-18T00:33:34.943Z,42.65
2022-12-18T00:36:07.447Z,42.30
2022-12-18T00:38:35.262Z,39.05
2022-12-18T00:41:02.222Z,44.17
2022-12-18T00:43:29.088Z,53.25
2022-12-18T00:45:56.167Z,42.83
2022-12-18T00:50:50.737Z,43.65
2022-12-18T00:53:18.347Z,59.70
2022-12-18T00:55:46.102Z,37.95
2022-12-18T00:58:15.240Z,43.10
2022-12-18T01:00:42.911Z,55.53
2022-12-18T01:03:14.733Z,44.63
2022-12-18T01:05:44.411Z,39.85
2022-12-18T01:08:11.939Z,48.88
2022-12-18T01:10:41.815Z,27.13
2022-12-18T01:13:08.890Z,43.15
2022-12-18T01:15:35.990Z,45.63
2022-12-18T01:18:02.831Z,63.85
2022-12-18T01:20:29.554Z,42.63
2022-12-18T01:22:56.296Z,39.33
2022-12-18T01:25:23.032Z,51.15
2022-12-18T01:27:51.061Z,43.28
2022-12-18T01:30:17.916Z,46.40
2022-12-18T01:32:45.779Z,40.92
2022-12-18T01:35:12.466Z,44.90
2022-12-18T01:37:39.283Z,63.45
2022-12-18T01:40:06.813Z,44.90
2022-12-18T01:42:33.550Z,45.78
2022-12-18T01:45:06.445Z,38.28
2022-12-18T01:47:42.479Z,37.85
2022-12-18T01:50:14.666Z,39.60
2022-12-18T01:52:49.851Z,41.08
2022-12-18T01:55:20.332Z,42.17
2022-12-18T01:57:48.326Z,36.15
2022-12-18T02:00:18.941Z,34.95
2022-12-18T02:02:47.510Z,27.48
2022-12-18T02:05:19.227Z,38.63
2022-12-18T02:08:04.706Z,34.85
2022-12-18T02:10:43.782Z,17.52
2022-12-18T02:13:36.233Z,29.08
2022-12-18T02:16:13.315Z,34.97
2022-12-18T02:18:46.391Z,36.85
2022-12-18T02:21:46.598Z,27.40
2022-12-18T02:24:29.225Z,28.98
2022-12-18T02:27:06.630Z,31.17
2022-12-18T02:29:58.542Z,31.33
2022-12-18T02:32:35.326Z,33.00
2022-12-18T02:35:05.368Z,30.13
2022-12-18T02:37:35.677Z,33.45
2022-12-18T02:40:06.407Z,37.17
2022-12-18T02:42:35.930Z,34.08
2022-12-18T02:45:05.914Z,47.75
2022-12-18T02:47:39.310Z,51.90
2022-12-18T02:50:25.349Z,46.97
2022-12-18T02:53:17.395Z,39.13
2022-12-18T02:56:05.324Z,40.75
2022-12-18T02:58:56.802Z,34.88
2022-12-18T03:01:58.888Z,50.70
2022-12-18T03:04:33.270Z,27.73
2022-12-18T03:07:06.215Z,32.00
2022-12-18T03:09:37.587Z,33.17
2022-12-18T03:12:23.663Z,48.38
2022-12-18T03:15:06.350Z,37.65
2022-12-18T03:17:34.504Z,45.03
2022-12-18T03:20:09.471Z,35.28
2022-12-18T03:22:38.530Z,38.85
2022-12-18T03:25:09.912Z,35.70
2022-12-18T03:27:47.375Z,50.03
2022-12-18T03:30:19.078Z,48.65
2022-12-18T03:33:00.566Z,39.60
2022-12-18T03:35:34.410Z,42.95
2022-12-18T03:38:01.444Z,36.03
2022-12-18T03:40:42.095Z,40.40
2022-12-18T03:43:45.911Z,35.63
2022-12-18T03:46:31.249Z,35.38
2022-12-18T03:49:10.863Z,45.88
2022-12-18T03:51:45.921Z,38.10
2022-12-18T03:54:14.075Z,47.72
2022-12-18T03:56:54.572Z,36.67
2022-12-18T03:59:23.359Z,46.70
2022-12-18T04:01:53.868Z,46.42
2022-12-18T04:04:23.323Z,40.40
2022-12-18T04:06:51.411Z,49.03
2022-12-18T04:09:21.017Z,38.95
2022-12-18T04:11:48.979Z,36.30
2022-12-18T04:14:18.261Z,40.42
2022-12-18T04:16:46.485Z,38.08
2022-12-18T04:19:16.362Z,40.35
2022-12-18T04:21:44.876Z,37.35
2022-12-18T04:24:13.807Z,36.75
2022-12-18T04:26:47.010Z,34.45
2022-12-18T04:29:18.703Z,40.15
2022-12-18T04:31:45.391Z,34.72
2022-12-18T04:34:12.451Z,32.55
2022-12-18T04:36:45.467Z,27.42
2022-12-18T04:39:13.785Z,33.97
2022-12-18T04:41:42.220Z,36.80
2022-12-18T04:44:09.495Z,34.00
2022-12-18T04:46:36.245Z,44.20
2022-12-18T04:49:03.031Z,40.00
2022-12-18T04:51:29.718Z,36.80
2022-12-18T04:53:56.480Z,36.38
2022-12-18T04:56:23.575Z,29.25
2022-12-18T04:58:50.500Z,27.20
2022-12-18T05:01:18.708Z,22.25
2022-12-18T05:03:46.128Z,26.83
2022-12-18T05:06:13.014Z,24.77
2022-12-18T05:08:39.971Z,28.00
2022-12-18T05:11:10.125Z,20.63
2022-12-18T05:13:39.020Z,24.15
2022-12-18T05:16:07.433Z,25.30
2022-12-18T05:18:34.629Z,23.52
2022-12-18T05:21:01.610Z,17.95
2022-12-18T05:23:29.092Z,26.15
2022-12-18T05:26:01.771Z,23.42
2022-12-18T05:28:30.822Z,29.13
2022-12-18T05:31:00.177Z,29.55
2022-12-18T05:33:29.671Z,29.77
2022-12-18T05:35:59.708Z,33.28
2022-12-18T05:38:27.722Z,35.35
2022-12-18T05:40:54.848Z,36.85
2022-12-18T05:45:50.061Z,35.30
2022-12-18T05:48:17.855Z,34.53
2022-12-18T05:50:46.763Z,45.30
2022-12-18T05:53:15.384Z,30.85
2022-12-18T05:55:43.752Z,38.05
2022-12-18T05:58:11.695Z,27.02
2022-12-18T06:00:40.940Z,32.40
2022-12-18T06:03:09.670Z,29.00
2022-12-18T06:05:41.843Z,29.48
2022-12-18T06:08:09.154Z,23.30
2022-12-18T06:13:02.722Z,26.50
2022-12-18T06:15:29.634Z,33.03
2022-12-18T06:17:56.438Z,27.80
2022-12-18T06:20:23.366Z,28.75
2022-12-18T06:22:50.543Z,26.52
2022-12-18T06:27:44.263Z,29.13
2022-12-18T06:30:12.163Z,28.42
2022-12-18T06:32:39.420Z,26.15
2022-12-18T06:35:06.662Z,25.15
2022-12-18T06:40:00.175Z,20.52
2022-12-18T06:42:26.866Z,23.45
2022-12-18T06:44:53.558Z,24.60
2022-12-18T06:47:20.322Z,21.58
2022-12-18T06:49:46.990Z,23.55
2022-12-18T06:52:13.683Z,19.02
2022-12-18T06:54:40.390Z,22.92
2022-12-18T06:57:07.148Z,24.38
2022-12-18T06:59:33.897Z,24.70
2022-12-18T07:02:00.670Z,19.77
2022-12-18T07:06:58.331Z,19.98
2022-12-18T07:09:26.709Z,18.33
2022-12-18T07:11:53.779Z,17.98
2022-12-18T07:14:20.498Z,19.73
2022-12-18T07:16:48.293Z,19.70
2022-12-18T07:19:15.540Z,19.02
2022-12-18T07:24:08.977Z,24.83
2022-12-18T07:26:35.680Z,23.45
2022-12-18T07:29:02.781Z,22.55
2022-12-18T07:31:29.821Z,24.65
2022-12-18T07:33:56.691Z,27.92
2022-12-18T07:36:23.438Z,24.52
2022-12-18T07:38:51.325Z,23.20
2022-12-18T07:41:20.021Z,20.40
2022-12-18T07:43:47.054Z,10.82
2022-12-18T07:46:15.132Z,19.98
2022-12-18T07:48:43.779Z,19.92
2022-12-18T07:51:12.305Z,17.48
2022-12-18T07:53:40.200Z,10.02
2022-12-18T07:58:57.490Z,11.65
2022-12-18T08:01:24.373Z,17.00
2022-12-18T08:03:52.427Z,18.90
2022-12-18T08:06:22.764Z,19.50
2022-12-18T08:08:54.648Z,16.30
2022-12-18T08:11:21.828Z,17.58
2022-12-18T08:13:48.571Z,16.63
2022-12-18T08:16:16.204Z,19.60
2022-12-18T08:18:42.982Z,18.70
2022-12-18T08:21:17.863Z,19.80
2022-12-18T08:23:45.389Z,14.80
2022-12-18T08:26:13.250Z,16.55
2022-12-18T08:28:40.935Z,12.40
2022-12-18T08:31:08.605Z,10.13
2022-12-18T08:33:37.279Z,16.70
2022-12-18T08:36:05.215Z,21.48
2022-12-18T08:38:35.931Z,16.88
2022-12-18T08:41:05.551Z,13.23
2022-12-18T08:43:51.085Z,12.93
2022-12-18T08:46:19.449Z,18.63
2022-12-18T08:48:46.666Z,15.60
2022-12-18T08:53:40.767Z,16.65
2022-12-18T08:56:08.584Z,15.70
2022-12-18T08:58:36.024Z,18.67
2022-12-18T09:01:10.338Z,14.95
2022-12-18T09:03:38.138Z,19.90
2022-12-18T09:06:05.975Z,21.17
2022-12-18T09:08:35.616Z,17.92
2022-12-18T09:11:03.090Z,16.00
2022-12-18T09:13:30.341Z,9.88
2022-12-18T09:15:57.173Z,16.90
2022-12-18T09:18:25.637Z,11.27
2022-12-18T09:20:54.122Z,14.90
2022-12-18T09:23:21.746Z,15.77
2022-12-18T09:25:49.430Z,17.23
2022-12-18T09:28:19.336Z,16.52
2022-12-18T09:30:50.822Z,10.90
2022-12-18T09:33:18.637Z,15.63
2022-12-18T09:35:47.013Z,12.45
2022-12-18T09:38:19.167Z,15.93
2022-12-18T09:41:00.783Z,17.27
2022-12-18T09:43:48.035Z,21.58
2022-12-18T09:46:26.491Z,19.83
2022-12-18T09:48:58.219Z,15.73
2022-12-18T09:51:39.833Z,14.18
2022-12-18T09:54:12.376Z,13.68
2022-12-18T09:56:44.720Z,16.38
2022-12-18T09:59:22.377Z,9.40
2022-12-18T10:01:49.343Z,13.55
2022-12-18T10:04:16.318Z,14.32
2022-12-18T10:07:28.311Z,16.63
2022-12-18T10:10:20.336Z,15.25
2022-12-18T10:13:05.896Z,11.40
2022-12-18T10:15:50.315Z,12.05
2022-12-18T10:18:55.045Z,15.18
2022-12-18T10:21:29.524Z,11.98
2022-12-18T10:24:04.336Z,12.60
2022-12-18T10:26:33.083Z,12.38
2022-12-18T10:29:05.262Z,12.38
2022-12-18T10:31:32.547Z,12.52
2022-12-18T10:33:59.294Z,13.98
2022-12-18T10:36:26.336Z,12.98
2022-12-18T10:38:53.104Z,15.70
2022-12-18T10:41:21.771Z,15.77
2022-12-18T10:43:49.032Z,12.35
2022-12-18T10:48:47.594Z,9.52
2022-12-18T10:51:34.905Z,13.55
2022-12-18T10:54:07.740Z,12.77
2022-12-18T10:56:37.864Z,16.08
2022-12-18T10:59:10.713Z,16.85
2022-12-18T11:01:49.454Z,15.88
2022-12-18T11:04:50.458Z,15.70
2022-12-18T11:07:17.216Z,17.33
2022-12-18T11:09:43.892Z,16.13
2022-12-18T11:12:23.945Z,17.77
2022-12-18T11:14:59.061Z,17.27
2022-12-18T11:17:35.851Z,16.23
2022-12-18T11:20:07.928Z,17.55
2022-12-18T11:22:37.439Z,14.52
2022-12-18T11:25:35.667Z,17.05
2022-12-18T11:28:30.197Z,13.48
2022-12-18T11:31:18.844Z,15.20
2022-12-18T11:34:28.654Z,16.48
2022-12-18T11:36:56.290Z,17.67
2022-12-18T11:39:46.034Z,15.98
2022-12-18T11:42:23.854Z,15.43
2022-12-18T11:48:20.076Z,12.55
2022-12-18T11:51:27.075Z,16.65
2022-12-18T11:53:54.079Z,16.58
2022-12-18T11:57:05.965Z,18.83
2022-12-18T12:00:02.461Z,19.92
2022-12-18T12:03:00.251Z,21.77
2022-12-18T12:05:36.277Z,19.38
2022-12-18T12:08:17.072Z,19.35
2022-12-18T12:11:08.475Z,18.85
2022-12-18T12:13:51.527Z,21.13
2022-12-18T12:16:21.078Z,19.50
2022-12-18T12:19:21.362Z,19.48
2022-12-18T12:22:03.242Z,16.10
2022-12-18T12:25:02.197Z,16.30
2022-12-18T12:27:34.660Z,14.30
2022-12-18T12:30:23.798Z,17.48
2022-12-18T12:33:09.322Z,16.23
2022-12-18T12:35:50.511Z,16.63
2022-12-18T12:38:24.772Z,16.23
2022-12-18T12:41:03.376Z,16.13
2022-12-18T12:46:40.434Z,15.48
2022-12-18T12:49:40.673Z,17.88
2022-12-18T12:52:14.969Z,16.67
2022-12-18T12:54:43.251Z,14.65
2022-12-18T12:57:27.946Z,15.25
2022-12-18T13:00:17.788Z,15.70
2022-12-18T13:03:13.974Z,16.30
2022-12-18T13:05:49.415Z,15.48
2022-12-18T13:08:31.677Z,15.07
2022-12-18T13:11:20.910Z,15.65
2022-12-18T13:13:55.400Z,18.73
2022-12-18T13:16:28.690Z,14.30
2022-12-18T13:19:00.663Z,17.67
2022-12-18T13:21:34.623Z,21.02
2022-12-18T13:24:24.756Z,21.27
2022-12-18T13:26:52.162Z,20.20
2022-12-18T13:29:48.436Z,22.10
2022-12-18T13:32:26.404Z,22.67
2022-12-18T13:35:19.070Z,21.52
2022-12-18T13:37:55.259Z,24.50
2022-12-18T13:40:50.951Z,24.85
2022-12-18T13:43:20.680Z,23.52
2022-12-18T13:46:07.673Z,25.30
2022-12-18T13:48:39.048Z,24.30
2022-12-18T13:51:11.977Z,25.70
2022-12-18T13:53:50.674Z,24.83
2022-12-18T13:56:25.621Z,23.15
2022-12-18T13:59:19.407Z,24.33
2022-12-18T14:01:51.977Z,23.77
2022-12-18T14:04:28.854Z,26.20
2022-12-18T14:07:33.042Z,23.98
2022-12-18T14:10:41.911Z,24.75
2022-12-18T14:13:11.739Z,26.50
2022-12-18T14:15:45.358Z,25.63
2022-12-18T14:18:18.125Z,27.83
2022-12-18T14:20:52.686Z,26.75
2022-12-18T14:23:41.306Z,25.98
2022-12-18T14:26:40.528Z,27.73
2022-12-18T14:29:31.075Z,25.33
2022-12-18T14:32:19.344Z,24.85
2022-12-18T14:34:52.925Z,25.92
2022-12-18T14:37:24.426Z,23.55
2022-12-18T14:40:00.125Z,24.98
2022-12-18T14:42:29.601Z,23.90
2022-12-18T14:45:39.182Z,25.27
2022-12-18T14:48:23.193Z,25.85
2022-12-18T14:51:03.404Z,23.70
2022-12-18T14:53:39.320Z,23.90
2022-12-18T14:56:26.773Z,28.58
2022-12-18T14:58:59.271Z,24.73
2022-12-18T15:01:39.359Z,26.33
2022-12-18T15:04:23.688Z,28.08
2022-12-18T15:07:20.127Z,25.08
2022-12-18T15:10:02.200Z,27.65
2022-12-18T15:12:37.924Z,25.38
2022-12-18T15:15:06.264Z,27.65
2022-12-18T15:17:32.987Z,28.50
2022-12-18T15:20:10.666Z,25.48
2022-12-18T15:22:38.342Z,25.58
2022-12-18T15:25:27.586Z,25.02
2022-12-18T15:27:54.435Z,28.05
2022-12-18T15:30:26.001Z,27.73
2022-12-18T15:33:07.552Z,27.88
2022-12-18T15:35:34.364Z,26.73
2022-12-18T15:38:01.108Z,28.52
2022-12-18T15:40:27.913Z,27.17
2022-12-18T15:43:15.059Z,28.75
2022-12-18T15:45:42.636Z,26.58
2022-12-18T15:48:22.993Z,28.27
2022-12-18T15:50:52.062Z,27.02
2022-12-18T15:53:18.920Z,26.10
2022-12-18T15:56:04.592Z,27.55
2022-12-18T15:58:31.655Z,27.60
2022-12-18T16:01:00.559Z,28.27
2022-12-18T16:03:27.854Z,28.73
2022-12-18T16:05:54.971Z,27.70
2022-12-18T16:08:23.704Z,27.20
2022-12-18T16:10:50.568Z,26.85
2022-12-18T16:13:20.250Z,25.20
2022-12-18T16:15:47.540Z,27.73
2022-12-18T16:18:14.376Z,26.02
2022-12-18T16:20:41.672Z,28.55
2022-12-18T16:25:35.043Z,25.70
2022-12-18T16:28:01.984Z,26.85
2022-12-18T16:30:32.750Z,29.67
2022-12-18T16:33:07.463Z,27.50
2022-12-18T16:35:35.643Z,27.42
2022-12-18T16:38:02.363Z,29.38
2022-12-18T16:40:29.273Z,26.70
2022-12-18T16:42:56.042Z,24.63
2022-12-18T16:45:24.181Z,23.65
2022-12-18T16:47:51.067Z,21.17
2022-12-18T16:50:17.951Z,20.90
2022-12-18T16:52:46.001Z,23.23
2022-12-18T16:55:12.765Z,21.55
2022-12-18T16:57:42.004Z,21.20
2022-12-18T17:00:11.151Z,20.05
2022-12-18T17:02:38.205Z,18.02
2022-12-18T17:07:32.226Z,20.52
2022-12-18T17:09:59.213Z,22.42
2022-12-18T17:12:28.756Z,21.55
2022-12-18T17:14:55.620Z,21.38
2022-12-18T17:17:23.542Z,20.13
2022-12-18T17:19:52.248Z,21.40
2022-12-18T17:22:21.231Z,19.92
2022-12-18T17:24:49.320Z,20.08
2022-12-18T17:27:16.201Z,21.98
2022-12-18T17:29:48.268Z,20.70
2022-12-18T17:32:16.822Z,21.92
2022-12-18T17:34:44.181Z,20.63
2022-12-18T17:37:11.425Z,21.02
2022-12-18T17:42:09.523Z,19.27
2022-12-18T17:44:44.893Z,19.38
2022-12-18T17:47:13.374Z,19.73
2022-12-18T17:49:44.331Z,20.55
2022-12-18T17:52:12.797Z,18.88
2022-12-18T17:54:45.955Z,21.38
2022-12-18T17:57:14.711Z,18.75
2022-12-18T17:59:41.600Z,20.95
2022-12-18T18:02:12.002Z,20.80
2022-12-18T18:04:39.030Z,21.65
2022-12-18T18:07:05.880Z,21.20
2022-12-18T18:09:32.770Z,21.90
2022-12-18T18:12:18.057Z,22.00
2022-12-18T18:14:44.819Z,21.55
2022-12-18T18:17:11.836Z,19.67
2022-12-18T18:19:39.380Z,20.63
2022-12-18T18:22:07.079Z,20.55
2022-12-18T18:24:34.236Z,19.45
2022-12-18T18:29:30.558Z,18.67
2022-12-18T18:31:58.078Z,21.33
2022-12-18T18:34:27.819Z,21.45
2022-12-18T18:36:54.659Z,22.10
2022-12-18T18:39:22.061Z,20.88
2022-12-18T18:41:49.694Z,18.50
2022-12-18T18:44:18.765Z,18.90
2022-12-18T18:46:45.751Z,21.17
2022-12-18T18:49:14.094Z,19.75
2022-12-18T18:51:42.839Z,20.10
2022-12-18T18:54:10.544Z,19.55
2022-12-18T18:57:04.019Z,19.90
2022-12-18T18:59:31.587Z,20.02
2022-12-18T19:02:04.571Z,18.60
2022-12-18T19:04:33.419Z,18.00
2022-12-18T19:07:01.725Z,20.02
2022-12-18T19:09:29.518Z,18.27
2022-12-18T19:12:15.492Z,21.60
2022-12-18T19:14:42.711Z,21.83
2022-12-18T19:17:10.786Z,21.23
2022-12-18T19:19:37.887Z,24.30
2022-12-18T19:22:07.638Z,20.98
2022-12-18T19:24:35.630Z,21.10
2022-12-18T19:27:02.283Z,20.45
2022-12-18T19:29:29.047Z,21.17
2022-12-18T19:31:56.124Z,22.15
2022-12-18T19:34:22.895Z,22.25
2022-12-18T19:36:50.776Z,22.63
2022-12-18T19:39:19.801Z,23.35
2022-12-18T19:41:46.886Z,22.63
2022-12-18T19:44:16.214Z,15.77
2022-12-18T19:46:44.000Z,17.65
2022-12-18T19:49:17.554Z,17.98
2022-12-18T19:51:45.039Z,19.35
2022-12-18T19:54:16.384Z,15.82
2022-12-18T19:56:44.199Z,20.13
2022-12-18T19:59:11.176Z,18.58
2022-12-18T20:01:38.713Z,20.58
2022-12-18T20:04:06.436Z,20.23
2022-12-18T20:06:46.377Z,19.15
2022-12-18T20:09:13.896Z,19.88
2022-12-18T20:11:41.833Z,19.02
2022-12-18T20:14:14.906Z,21.13
2022-12-18T20:16:47.665Z,20.90
2022-12-18T20:19:16.718Z,19.00
2022-12-18T20:21:46.868Z,21.83
2022-12-18T20:24:13.784Z,19.73
2022-12-18T20:26:40.739Z,21.38
2022-12-18T20:29:09.183Z,21.05
2022-12-18T20:31:36.261Z,22.02
2022-12-18T20:34:04.962Z,22.25
2022-12-18T20:36:36.228Z,22.60
2022-12-18T20:39:06.504Z,25.63
2022-12-18T20:41:37.859Z,24.23
2022-12-18T20:44:10.276Z,25.33
2022-12-18T20:46:54.184Z,24.38
2022-12-18T20:49:21.073Z,25.33
2022-12-18T20:51:51.953Z,25.48
2022-12-18T20:54:18.749Z,27.27
2022-12-18T20:56:47.460Z,26.27
2022-12-18T20:59:14.908Z,25.05
2022-12-18T21:01:45.255Z,24.70
2022-12-18T21:04:18.907Z,24.05
2022-12-18T21:06:54.114Z,25.33
2022-12-18T21:09:24.671Z,25.13
2022-12-18T21:12:13.188Z,24.45
2022-12-18T21:14:42.185Z,22.48
2022-12-18T21:17:09.156Z,25.60
2022-12-18T21:19:36.266Z,21.27
2022-12-18T21:22:03.663Z,24.02
2022-12-18T21:24:32.544Z,23.63
2022-12-18T21:27:02.005Z,20.45
2022-12-18T21:29:28.891Z,25.75
2022-12-18T21:31:56.031Z,23.38
2022-12-18T21:34:28.497Z,25.60
2022-12-18T21:36:57.820Z,24.80
2022-12-18T21:39:27.343Z,25.35
2022-12-18T21:42:12.870Z,24.35
2022-12-18T21:44:42.316Z,25.65
2022-12-18T21:47:21.908Z,25.92
2022-12-18T21:49:51.992Z,27.17
2022-12-18T21:52:19.510Z,27.80
2022-12-18T21:54:48.248Z,27.88
2022-12-18T21:57:15.026Z,24.38
2022-12-18T21:59:43.643Z,25.08
2022-12-18T22:02:15.385Z,25.50
2022-12-18T22:04:43.592Z,24.88
2022-12-18T22:07:11.352Z,22.88
2022-12-18T22:09:38.342Z,24.88
2022-12-18T22:12:05.964Z,24.73
2022-12-18T22:14:32.815Z,24.40
2022-12-18T22:16:59.623Z,26.10
2022-12-18T22:19:27.094Z,27.13
2022-12-18T22:21:54.631Z,28.10
2022-12-18T22:24:26.259Z,28.52
2022-12-18T22:26:59.548Z,24.92
2022-12-18T22:29:47.536Z,28.02
2022-12-18T22:32:16.987Z,27.00
2022-12-18T22:34:48.232Z,27.65
2022-12-18T22:37:14.915Z,28.67
2022-12-18T22:39:41.650Z,28.58
2022-12-18T22:42:08.908Z,29.80
2022-12-18T22:44:35.592Z,28.98
2022-12-18T22:47:07.006Z,28.40
2022-12-18T22:49:35.715Z,26.75
2022-12-18T22:52:09.357Z,29.10
2022-12-18T22:54:36.365Z,28.65
2022-12-18T22:57:03.155Z,27.08
2022-12-18T22:59:29.974Z,27.40
2022-12-18T23:01:58.496Z,22.65
2022-12-18T23:04:30.164Z,22.48
2022-12-18T23:07:03.016Z,19.13
2022-12-18T23:09:29.776Z,25.58
2022-12-18T23:11:56.520Z,27.00
2022-12-18T23:14:23.213Z,26.73
2022-12-18T23:16:50.026Z,28.42
2022-12-18T23:19:19.080Z,27.45
2022-12-18T23:21:45.758Z,29.50
2022-12-18T23:24:12.489Z,27.27
2022-12-18T23:26:39.281Z,29.13
2022-12-18T23:29:06.198Z,30.33
2022-12-18T23:31:36.013Z,31.02
2022-12-18T23:34:04.950Z,30.77
2022-12-18T23:36:34.007Z,31.17
2022-12-18T23:39:15.309Z,31.15
2022-12-18T23:41:53.775Z,30.60
2022-12-18T23:44:20.474Z,31.17
2022-12-18T23:46:47.205Z,35.38
2022-12-18T23:49:14.023Z,30.55
2022-12-18T23:51:40.711Z,27.55
2022-12-18T23:54:09.016Z,30.70
2022-12-18T23:56:35.845Z,29.67
2022-12-18T23:59:02.528Z,29.52
